Time;durP1;ratioP1;P1;durP2;ratioP2;P2;SDS_P1;SDS_P2;PMS_P1;PMS_P2;Temp;Humidity;BMP_temperature;BMP_pressure;BME280_temperature;BME280_humidity;BME280_pressure;Samples;Min_cycle;Max_cycle;Signal;HPM_P1;HPM_P2
2022/08/17 00:00:53;;;;;;;47.92;42.85;;;;;;;19.18;85.36;100846.88;5092963;28;20024;-47
2022/08/17 00:03:28;;;;;;;47.35;42.42;;;;;;;19.10;85.99;100840.84;5092880;28;20028;-47
2022/08/17 00:06:01;;;;;;;49.35;43.55;;;;;;;19.03;86.00;100838.25;5092490;28;20028;-47
2022/08/17 00:08:30;;;;;;;48.17;43.17;;;;;;;18.99;85.46;100839.16;5092946;28;20024;-47
2022/08/17 00:10:57;;;;;;;48.80;43.55;;;;;;;18.96;86.05;100835.69;5093004;28;20466;-47
2022/08/17 00:13:51;;;;;;;48.90;44.08;;;;;;;18.99;86.65;100831.31;5092029;28;20081;-47
2022/08/17 00:16:30;;;;;;;47.70;42.75;;;;;;;18.92;86.35;100834.81;5088942;28;20036;-48
2022/08/17 00:18:56;;;;;;;46.72;41.72;;;;;;;18.90;86.62;100829.63;5092204;28;20486;-47
2022/08/17 00:21:22;;;;;;;52.10;46.80;;;;;;;18.91;86.99;100823.53;5093774;28;20040;-46
2022/08/17 00:23:47;;;;;;;51.67;46.47;;;;;;;18.96;86.83;100822.63;5096975;28;20020;-48
2022/08/17 00:26:14;;;;;;;50.00;44.67;;;;;;;18.89;87.04;100816.53;5096264;28;20020;-48
2022/08/17 00:28:40;;;;;;;52.40;46.85;;;;;;;18.82;87.65;100818.28;5096659;28;20032;-48
2022/08/17 00:31:07;;;;;;;51.83;46.53;;;;;;;18.71;88.44;100807.91;5097173;28;20024;-47
2022/08/17 00:33:32;;;;;;;47.50;42.72;;;;;;;18.63;88.18;100796.66;5095756;28;20077;-47
2022/08/17 00:35:59;;;;;;;54.22;48.65;;;;;;;18.59;88.88;100800.13;5096868;28;20024;-48
2022/08/17 00:38:27;;;;;;;51.10;45.67;;;;;;;18.56;89.05;100805.38;5096792;28;20028;-47
2022/08/17 00:41:06;;;;;;;53.50;47.88;;;;;;;18.65;89.85;100794.88;5096051;28;20028;-47
2022/08/17 00:43:40;;;;;;;52.22;47.00;;;;;;;18.70;89.06;100790.50;5096698;28;20020;-47
2022/08/17 00:46:15;;;;;;;54.85;48.75;;;;;;;18.67;89.42;100792.25;5096894;28;20020;-47
2022/08/17 00:48:41;;;;;;;54.30;48.47;;;;;;;18.75;89.80;100795.72;5075433;28;20145;-48
2022/08/17 00:51:36;;;;;;;57.88;48.78;;;;;;;18.82;88.30;100792.19;5076236;28;20488;-47
2022/08/17 00:54:10;;;;;;;51.40;46.13;;;;;;;18.86;89.23;100796.53;5076129;28;20111;-48
2022/08/17 00:56:40;;;;;;;53.47;48.22;;;;;;;18.96;89.25;100793.91;5076169;28;20044;-47
2022/08/17 00:59:08;;;;;;;52.50;46.75;;;;;;;19.00;88.55;100795.59;5076158;28;20025;-48
2022/08/17 01:01:35;;;;;;;52.13;46.45;;;;;;;19.11;88.44;100800.75;5075086;28;20032;-48
2022/08/17 01:04:02;;;;;;;50.78;45.65;;;;;;;19.21;88.48;100805.03;5075884;28;20368;-51
2022/08/17 01:06:28;;;;;;;52.78;44.65;;;;;;;19.29;87.90;100803.25;5075710;28;20376;-49
2022/08/17 01:08:56;;;;;;;49.15;44.35;;;;;;;19.21;87.58;100794.59;5075314;28;20016;-52
2022/08/17 01:11:22;;;;;;;47.03;42.20;;;;;;;19.28;87.30;100785.84;5075739;28;20144;-50
2022/08/17 01:13:47;;;;;;;53.63;44.83;;;;;;;19.23;87.43;100788.47;5075753;28;20136;-52
2022/08/17 01:16:16;;;;;;;49.63;44.17;;;;;;;19.22;87.20;100785.88;5074972;28;20486;-51
2022/08/17 01:18:44;;;;;;;48.92;43.88;;;;;;;19.15;87.42;100784.19;5075520;28;20388;-50
2022/08/17 01:21:13;;;;;;;;;;;;;;;19.29;84.67;100784.97;5076290;28;20031;-49
2022/08/17 01:23:41;;;;;;;50.80;45.67;;;;;;;19.23;86.80;100782.38;5074799;28;19969;-51
2022/08/17 01:26:06;;;;;;;50.95;45.25;;;;;;;19.27;86.98;100780.63;5075823;28;20024;-47
2022/08/17 01:28:33;;;;;;;51.53;46.20;;;;;;;19.31;86.63;100779.72;5075329;28;20024;-48
2022/08/17 01:31:02;;;;;;;48.65;43.45;;;;;;;19.21;86.99;100776.28;5074858;28;20469;-50
2022/08/17 01:33:28;;;;;;;50.92;45.47;;;;;;;19.15;87.22;100772.00;5073838;28;20365;-51
2022/08/17 01:35:53;;;;;;;50.92;45.63;;;;;;;19.14;87.35;100772.00;5075510;28;20070;-50
2022/08/17 01:38:19;;;;;;;53.42;47.92;;;;;;;19.12;87.71;100765.91;5074628;28;20032;-51
2022/08/17 01:40:56;;;;;;;54.53;48.78;;;;;;;19.17;87.28;100761.53;5075311;28;20033;-48
2022/08/17 01:43:26;;;;;;;53.38;47.80;;;;;;;19.14;87.46;100762.41;5074391;28;20476;-50
2022/08/17 01:45:55;;;;;;;52.75;47.25;;;;;;;19.14;87.31;100766.78;5075496;28;20054;-50
2022/08/17 01:48:22;;;;;;;55.42;49.45;;;;;;;19.06;87.73;100759.84;5092537;28;20056;-51
2022/08/17 01:50:50;;;;;;;54.67;48.92;;;;;;;19.11;87.57;100762.44;5094735;28;20032;-51
2022/08/17 01:53:23;;;;;;;52.05;46.50;;;;;;;19.17;87.50;100771.97;5095277;28;20024;-51
2022/08/17 01:55:52;;;;;;;53.03;47.30;;;;;;;19.16;87.29;100763.28;5095289;28;20031;-51
2022/08/17 01:58:18;;;;;;;52.90;47.70;;;;;;;19.19;87.43;100759.78;5094288;28;20468;-50
2022/08/17 02:00:45;;;;;;;53.15;47.65;;;;;;;19.04;87.12;100761.63;5095322;28;20028;-50
2022/08/17 02:03:11;;;;;;;54.03;48.20;;;;;;;19.03;87.46;100765.13;5095245;28;20020;-50
2022/08/17 02:05:38;;;;;;;53.78;48.47;;;;;;;18.96;87.85;100766.03;5094235;28;20435;-49
2022/08/17 02:08:03;;;;;;;55.42;49.50;;;;;;;18.86;88.60;100762.59;5095154;28;20021;-50
2022/08/17 02:10:31;;;;;;;53.67;48.13;;;;;;;18.79;88.43;100766.09;5094705;28;20028;-50
2022/08/17 02:12:57;;;;;;;55.22;49.58;;;;;;;18.67;88.83;100760.94;5094549;28;20036;-51
2022/08/17 02:15:22;;;;;;;57.85;51.80;;;;;;;18.65;88.87;100760.09;5095073;28;20027;-49
2022/08/17 02:17:47;;;;;;;57.10;51.20;;;;;;;18.64;89.49;100760.97;5094917;28;20536;-50
2022/08/17 02:20:13;;;;;;;56.42;50.47;;;;;;;18.56;89.85;100758.38;5094153;28;20032;-51
2022/08/17 02:22:41;;;;;;;58.95;52.88;;;;;;;18.51;90.55;100755.78;5094634;28;20463;-51
2022/08/17 02:25:08;;;;;;;56.53;50.42;;;;;;;18.43;90.99;100762.78;5094674;28;20375;-52
2022/08/17 02:27:35;;;;;;;57.10;50.78;;;;;;;18.43;91.16;100758.44;5093869;28;20099;-49
2022/08/17 02:30:06;;;;;;;57.17;50.85;;;;;;;18.38;91.34;100757.59;5094818;28;20024;-51
2022/08/17 02:32:31;;;;;;;56.08;50.33;;;;;;;18.42;91.62;100751.50;5093512;28;20020;-50
2022/08/17 02:34:57;;;;;;;55.92;50.00;;;;;;;18.38;91.59;100752.38;5094581;28;20159;-50
2022/08/17 02:37:24;;;;;;;57.90;51.75;;;;;;;18.34;91.54;100755.00;5094367;28;20020;-50
2022/08/17 02:39:49;;;;;;;56.72;50.70;;;;;;;18.27;91.37;100751.56;5093723;28;20039;-50
2022/08/17 02:42:15;;;;;;;54.80;49.28;;;;;;;18.17;92.33;100755.94;5094404;28;20028;-51
2022/08/17 02:44:40;;;;;;;55.45;49.83;;;;;;;18.13;91.94;100754.22;5093736;28;20383;-50
2022/08/17 02:47:08;;;;;;;55.20;49.38;;;;;;;18.02;92.52;100751.63;5093342;28;20048;-48
2022/08/17 02:49:33;;;;;;;56.08;50.15;;;;;;;17.98;93.06;100741.22;5094154;28;20032;-49
2022/08/17 02:52:01;;;;;;;57.65;51.75;;;;;;;17.88;93.82;100749.03;5094233;28;20035;-51
2022/08/17 02:54:27;;;;;;;58.55;52.33;;;;;;;17.81;93.98;100738.63;5093073;28;20144;-51
2022/08/17 02:56:52;;;;;;;56.97;50.97;;;;;;;17.80;94.45;100739.50;5094341;28;20105;-51
2022/08/17 02:59:17;;;;;;;58.13;51.83;;;;;;;17.75;94.18;100748.19;5094230;28;20391;-52
2022/08/17 03:01:43;;;;;;;56.83;50.60;;;;;;;17.75;94.63;100742.09;5093331;28;20443;-50
2022/08/17 03:04:08;;;;;;;58.95;52.85;;;;;;;17.75;95.14;100737.75;5094205;28;20039;-51
2022/08/17 03:06:34;;;;;;;57.45;51.40;;;;;;;17.74;95.28;100728.19;5093667;28;20036;-51
2022/08/17 03:08:59;;;;;;;57.40;51.55;;;;;;;17.73;94.63;100736.88;5093174;28;20024;-51
2022/08/17 03:11:24;;;;;;;59.42;53.45;;;;;;;17.76;95.24;100734.25;5093869;28;20376;-51
2022/08/17 03:13:49;;;;;;;61.05;54.67;;;;;;;17.74;95.14;100733.41;5093738;28;20036;-50
2022/08/17 03:16:15;;;;;;;63.15;56.55;;;;;;;17.80;95.32;100722.09;5093163;28;20383;-51
2022/08/17 03:18:40;;;;;;;62.58;56.22;;;;;;;17.78;95.61;100729.94;5093528;28;20059;-51
2022/08/17 03:21:07;;;;;;;63.55;56.75;;;;;;;17.80;95.59;100729.06;5093750;28;20392;-51
2022/08/17 03:23:39;;;;;;;62.53;55.80;;;;;;;17.83;95.94;100729.03;5092570;28;20059;-48
2022/08/17 03:26:06;;;;;;;63.78;57.13;;;;;;;17.87;95.81;100733.38;5093820;28;20052;-49
2022/08/17 03:28:31;;;;;;;61.07;54.57;;;;;;;17.85;95.91;100733.38;5093421;28;20043;-51
2022/08/17 03:30:57;;;;;;;62.55;55.67;;;;;;;17.87;96.29;100730.75;5092892;28;20028;-48
2022/08/17 03:33:22;;;;;;;64.93;58.03;;;;;;;17.93;96.23;100733.41;5093266;28;20051;-46
2022/08/17 03:35:48;;;;;;;65.88;58.88;;;;;;;17.95;96.65;100731.66;5093063;28;20481;-49
2022/08/17 03:38:15;;;;;;;62.28;55.67;;;;;;;17.92;96.65;100731.63;5093394;28;20028;-52
2022/08/17 03:40:41;;;;;;;;;;;;;;;18.02;93.37;100741.19;5093718;28;20076;-49
2022/08/17 03:43:08;;;;;;;63.28;56.45;;;;;;;18.02;96.12;100743.78;5092760;28;19912;-51
2022/08/17 03:56:43;;;;;;;58.88;52.63;;;;;;;18.18;95.25;100733.31;5092458;28;20074;-47
2022/08/17 03:59:15;;;;;;;57.90;51.70;;;;;;;18.25;95.02;100741.09;5092661;28;20069;-48
2022/08/17 04:01:41;;;;;;;60.80;54.28;;;;;;;18.27;95.03;100746.34;5092903;28;20069;-46
2022/08/17 04:04:07;;;;;;;59.15;52.92;;;;;;;18.29;94.89;100754.16;5092438;28;20063;-49
2022/08/17 04:06:32;;;;;;;61.30;54.55;;;;;;;18.27;94.94;100749.81;5092841;28;20043;-49
2022/08/17 04:08:57;;;;;;;57.35;51.22;;;;;;;18.27;94.94;100748.97;5093025;28;20490;-46
2022/08/17 04:11:23;;;;;;;58.58;52.33;;;;;;;18.27;94.54;100762.84;5091951;28;20020;-48
2022/08/17 04:13:48;;;;;;;58.55;52.55;;;;;;;18.27;94.61;100762.84;5092771;28;20450;-48
2022/08/17 04:16:13;;;;;;;59.75;53.47;;;;;;;18.28;95.29;100768.94;5093014;28;20020;-49
2022/08/17 04:18:38;;;;;;;63.85;57.13;;;;;;;18.26;95.65;100781.97;5091967;28;20028;-48
2022/08/17 04:21:07;;;;;;;62.90;56.45;;;;;;;18.29;95.45;100801.97;5092948;28;20369;-47
2022/08/17 04:23:35;;;;;;;63.67;56.83;;;;;;;18.33;95.33;100803.69;5092575;28;20119;-50
2022/08/17 04:26:00;;;;;;;64.45;57.70;;;;;;;18.37;95.44;100815.00;5092030;28;20060;-51
2022/08/17 04:28:26;;;;;;;66.88;59.15;;;;;;;18.40;95.86;100805.44;5092751;28;20064;-52
2022/08/17 04:30:51;;;;;;;64.57;57.85;;;;;;;18.40;96.44;100804.56;5092921;28;20031;-46
2022/08/17 04:33:22;;;;;;;65.07;57.85;;;;;;;18.45;96.32;100796.72;5091833;28;20024;-46
2022/08/17 04:35:58;;;;;;;65.07;57.97;;;;;;;18.43;96.71;100792.34;5092686;28;20031;-52
2022/08/17 04:38:30;;;;;;;62.35;54.15;;;;;;;18.54;95.79;100789.72;5092582;28;20016;-51
2022/08/17 04:43:42;;;;;;;59.63;53.38;;;;;;;18.75;95.31;100812.25;5092673;28;20123;-46
2022/08/17 04:46:10;;;;;;;56.83;50.75;;;;;;;18.82;94.72;100807.00;5092404;28;20024;-49
2022/08/17 04:48:39;;;;;;;55.08;49.20;;;;;;;18.86;94.42;100813.94;5092201;28;20507;-51
2022/08/17 04:51:08;;;;;;;57.10;50.80;;;;;;;18.95;94.54;100823.50;5092571;28;20074;-50
2022/08/17 04:53:34;;;;;;;52.03;46.45;;;;;;;18.98;94.02;100839.13;5091669;28;20054;-49
2022/08/17 04:55:59;;;;;;;53.80;48.00;;;;;;;18.98;93.99;100837.41;5092724;28;20028;-50
2022/08/17 04:58:25;;;;;;;52.85;47.20;;;;;;;19.01;93.74;100828.69;5092401;28;20360;-45
2022/08/17 05:00:50;;;;;;;51.83;46.22;;;;;;;19.07;94.03;100839.09;5091784;28;20403;-49
2022/08/17 05:03:15;;;;;;;50.75;45.30;;;;;;;19.04;93.35;100828.66;5092512;28;20024;-47
2022/08/17 05:05:48;;;;;;;51.53;45.05;;;;;;;19.00;93.73;100829.56;5092270;28;20028;-48
2022/08/17 05:08:15;;;;;;;49.78;43.70;;;;;;;18.99;93.77;100826.09;5093910;28;20502;-47
2022/08/17 05:10:41;;;;;;;51.88;46.58;;;;;;;18.96;94.32;100799.13;5096111;28;20032;-48
2022/08/17 05:13:14;;;;;;;49.78;44.63;;;;;;;18.99;94.21;100827.81;5096208;28;20031;-47
2022/08/17 05:15:41;;;;;;;51.05;45.78;;;;;;;18.99;93.84;100826.09;5095203;28;20390;-50
2022/08/17 05:18:07;;;;;;;51.38;44.72;;;;;;;19.00;93.65;100826.94;5096071;28;20016;-46
2022/08/17 05:20:35;;;;;;;50.13;44.92;;;;;;;18.98;93.88;100824.34;5095925;28;20103;-47
2022/08/17 05:23:05;;;;;;;49.95;44.53;;;;;;;18.98;94.20;100834.78;5095409;28;20035;-47
2022/08/17 05:25:35;;;;;;;52.28;46.63;;;;;;;18.94;94.43;100825.25;5095723;28;20034;-47
2022/08/17 05:28:01;;;;;;;50.67;45.38;;;;;;;18.92;94.56;100814.78;5095942;28;20024;-47
2022/08/17 05:30:27;;;;;;;52.20;45.47;;;;;;;18.91;94.72;100812.19;5094528;28;20361;-50
2022/08/17 05:33:04;;;;;;;49.97;44.50;;;;;;;18.92;95.00;100813.94;5095858;28;20493;-46
2022/08/17 05:35:30;;;;;;;;;;;;;;;19.02;92.41;100814.75;5095133;28;20482;-47
2022/08/17 05:37:56;;;;;;;52.03;44.73;;;;;;;18.95;94.66;100813.91;5095578;28;19912;-47
2022/08/17 05:40:22;;;;;;;49.40;44.08;;;;;;;18.94;94.42;100816.53;5095563;28;20019;-49
2022/08/17 05:42:48;;;;;;;48.92;43.80;;;;;;;18.94;94.68;100806.97;5094782;28;20073;-47
2022/08/17 05:45:17;;;;;;;49.28;43.80;;;;;;;18.96;94.86;100812.19;5095410;28;20414;-46
2022/08/17 05:47:45;;;;;;;50.60;45.13;;;;;;;18.96;94.61;100810.41;5095330;28;20131;-47
2022/08/17 05:50:22;;;;;;;48.80;43.47;;;;;;;19.01;93.71;100811.25;5094903;28;20103;-50
2022/08/17 05:53:06;;;;;;;48.67;43.50;;;;;;;19.02;94.45;100799.94;5095232;28;20105;-46
2022/08/17 05:56:09;;;;;;;48.75;42.67;;;;;;;19.07;94.15;100797.31;5095069;28;20475;-47
2022/08/17 05:58:59;;;;;;;48.03;42.88;;;;;;;19.14;93.24;100808.59;5094495;28;20032;-48
2022/08/17 06:01:33;;;;;;;47.58;41.25;;;;;;;19.22;92.98;100801.56;5095067;28;20117;-50
2022/08/17 06:04:14;;;;;;;48.13;39.10;;;;;;;19.31;93.25;100804.09;5094503;28;20028;-49
2022/08/17 06:06:50;;;;;;;42.28;37.80;;;;;;;19.42;91.73;100798.81;5095115;28;20144;-47
2022/08/17 06:09:44;;;;;;;41.40;37.00;;;;;;;19.56;91.64;100803.91;5095141;28;20056;-46
2022/08/17 06:12:37;;;;;;;40.78;36.53;;;;;;;19.74;90.78;100795.91;5093313;28;20137;-47
2022/08/17 06:15:02;;;;;;;36.58;32.65;;;;;;;19.94;89.44;100794.88;5095144;28;20032;-48
2022/08/17 06:17:28;;;;;;;36.00;32.30;;;;;;;20.08;88.10;100802.59;5094635;28;20365;-49
2022/08/17 06:20:02;;;;;;;33.58;30.08;;;;;;;20.21;87.53;100812.03;5093283;28;20617;-47
2022/08/17 06:22:39;;;;;;;32.97;29.55;;;;;;;20.30;86.09;100823.31;5094561;28;20076;-46
2022/08/17 06:25:11;;;;;;;;;;;;;;;20.39;86.97;100839.75;5094688;28;20028;-48
2022/08/17 06:27:41;;;;;;;36.03;29.98;;;;;;;20.40;85.70;100846.72;5094617;28;20425;-49
2022/08/17 06:30:20;;;;;;;31.88;28.67;;;;;;;20.42;85.16;100856.31;5094646;28;20476;-49
2022/08/17 06:32:48;;;;;;;32.13;28.35;;;;;;;20.39;85.47;100852.84;5093700;28;20047;-51
2022/08/17 06:35:18;;;;;;;33.97;28.70;;;;;;;20.34;85.21;100856.41;5094511;28;20086;-50
2022/08/17 06:38:27;;;;;;;32.78;29.55;;;;;;;20.33;84.77;100854.66;5094626;28;20016;-51
2022/08/17 06:40:57;;;;;;;32.38;29.20;;;;;;;20.26;84.94;100866.94;5093717;28;20464;-47
2022/08/17 06:43:57;;;;;;;32.70;29.27;;;;;;;20.26;85.18;100860.81;5094064;28;20401;-47
2022/08/17 06:46:33;;;;;;;31.17;27.88;;;;;;;20.19;85.34;100854.78;5093374;28;20412;-50
2022/08/17 06:49:19;;;;;;;32.95;29.55;;;;;;;20.20;85.50;100856.53;5094732;28;20082;-49
2022/08/17 06:51:53;;;;;;;31.30;28.20;;;;;;;20.20;86.19;100856.53;5094108;28;20020;-46
2022/08/17 06:54:44;;;;;;;32.15;28.38;;;;;;;20.25;85.42;100864.34;5093518;28;20035;-51
2022/08/17 06:57:22;;;;;;;30.83;27.65;;;;;;;20.32;85.39;100866.00;5094242;28;20467;-49
2022/08/17 06:59:55;;;;;;;31.10;27.88;;;;;;;20.31;85.52;100861.66;5093497;28;20486;-49
2022/08/17 07:02:44;;;;;;;31.45;28.13;;;;;;;20.36;85.05;100860.72;5093901;28;20020;-48
2022/08/17 07:05:14;;;;;;;34.15;29.77;;;;;;;20.36;84.44;100871.19;5094187;28;20024;-51
2022/08/17 07:08:00;;;;;;;32.08;28.85;;;;;;;20.42;84.75;100869.41;5093068;28;20035;-49
2022/08/17 07:10:29;;;;;;;31.07;27.77;;;;;;;20.44;84.03;100872.84;5093715;28;20024;-49
2022/08/17 07:13:02;;;;;;;31.45;27.85;;;;;;;20.49;84.35;100873.66;5093941;28;20301;-49
2022/08/17 07:15:41;;;;;;;30.95;27.75;;;;;;;20.58;83.71;100881.44;5092989;28;20024;-46
2022/08/17 07:18:07;;;;;;;32.47;27.40;;;;;;;20.64;83.49;100873.50;5093897;28;20043;-45
2022/08/17 07:20:33;;;;;;;31.20;27.50;;;;;;;20.69;82.56;100870.84;5093422;28;20024;-45
2022/08/17 07:23:37;;;;;;;32.20;28.80;;;;;;;20.80;83.13;100883.81;5093377;28;20587;-45
2022/08/17 07:26:07;;;;;;;32.00;28.73;;;;;;;20.81;82.96;100875.09;5093552;28;20425;-49
2022/08/17 07:28:34;;;;;;;29.30;26.15;;;;;;;20.85;82.65;100876.78;5092669;28;20023;-46
2022/08/17 07:30:59;;;;;;;29.55;26.48;;;;;;;20.86;81.64;100881.13;5093627;28;20020;-49
2022/08/17 07:33:31;;;;;;;30.05;27.00;;;;;;;20.83;81.85;100881.19;5093215;28;20046;-47
2022/08/17 07:35:59;;;;;;;31.98;28.58;;;;;;;20.77;81.25;100878.63;5092857;28;20028;-45
2022/08/17 07:38:27;;;;;;;30.33;27.35;;;;;;;20.76;81.49;100879.50;5093493;28;20016;-46
2022/08/17 07:41:01;;;;;;;32.40;26.92;;;;;;;20.79;81.75;100882.13;5093451;28;20023;-50
2022/08/17 07:43:46;;;;;;;29.65;26.55;;;;;;;20.88;81.50;100890.69;5092471;28;20036;-49
2022/08/17 07:49:21;;;;;;;28.27;25.27;;;;;;;20.99;80.81;100893.22;5091964;28;20109;-48
2022/08/17 07:51:46;;;;;;;27.58;24.25;;;;;;;21.18;80.58;100899.03;5093155;28;20054;-48
2022/08/17 07:54:14;;;;;;;29.17;23.93;;;;;;;21.29;79.92;100904.16;5093075;28;20530;-47
2022/08/17 07:56:46;;;;;;;26.38;23.58;;;;;;;21.32;79.20;100903.25;5092033;28;20479;-49
2022/08/17 07:59:24;;;;;;;26.67;23.45;;;;;;;21.43;78.88;100911.81;5093356;28;20024;-45
2022/08/17 08:01:56;;;;;;;25.65;22.75;;;;;;;21.53;79.53;100913.41;5093005;28;20031;-46
2022/08/17 08:04:38;;;;;;;30.63;23.48;;;;;;;21.62;78.70;100922.91;5092293;28;20032;-47
2022/08/17 08:07:12;;;;;;;27.58;24.67;;;;;;;21.58;77.79;100921.25;5093244;28;20035;-47
2022/08/17 08:09:43;;;;;;;27.27;24.33;;;;;;;21.59;78.09;100922.09;5092888;28;20035;-46
2022/08/17 08:12:28;;;;;;;27.63;24.65;;;;;;;21.65;77.73;100917.66;5092200;28;20031;-46
2022/08/17 08:15:11;;;;;;;27.88;24.88;;;;;;;21.71;77.89;100920.16;5093038;28;20085;-46
2022/08/17 08:17:51;;;;;;;29.17;25.45;;;;;;;21.79;77.62;100916.56;5092179;28;20103;-47
2022/08/17 08:20:17;;;;;;;28.08;25.13;;;;;;;21.77;76.63;100916.59;5092841;28;20028;-49
2022/08/17 08:22:49;;;;;;;27.73;24.70;;;;;;;21.92;76.95;100925.94;5092753;28;20020;-49
2022/08/17 08:25:24;;;;;;;27.95;24.80;;;;;;;22.03;76.63;100917.91;5092177;28;20035;-46
2022/08/17 08:28:12;;;;;;;28.83;25.70;;;;;;;22.08;76.25;100921.31;5092950;28;20046;-48
2022/08/17 08:30:46;;;;;;;30.30;27.02;;;;;;;21.98;74.61;100915.34;5092787;28;20067;-46
2022/08/17 08:33:26;;;;;;;31.58;26.63;;;;;;;21.97;75.73;100900.50;5091931;28;20390;-46
2022/08/17 08:36:08;;;;;;;29.85;26.60;;;;;;;21.93;76.05;100893.56;5092754;28;20115;-46
2022/08/17 08:38:46;;;;;;;31.42;28.00;;;;;;;21.87;77.06;100875.31;5091916;28;20028;-47
2022/08/17 08:41:37;;;;;;;30.30;27.10;;;;;;;21.82;76.77;100861.41;5092838;28;20027;-46
2022/08/17 08:44:24;;;;;;;31.98;28.50;;;;;;;21.80;76.62;100860.56;5096459;28;20024;-48
2022/08/17 08:47:19;;;;;;;31.33;27.88;;;;;;;21.96;76.95;100893.53;5095955;28;20034;-49
2022/08/17 08:50:07;;;;;;;30.30;27.25;;;;;;;22.16;75.55;100918.56;5096613;28;20032;-47
2022/08/17 08:53:00;;;;;;;31.30;28.02;;;;;;;22.38;74.92;100941.84;5095360;28;20510;-51
2022/08/17 08:55:50;;;;;;;32.15;28.80;;;;;;;22.59;73.68;100933.56;5085793;28;20056;-46
2022/08/17 08:58:22;;;;;;;31.00;27.67;;;;;;;22.75;73.24;100930.63;5096403;28;20471;-45
2022/08/17 09:00:53;;;;;;;31.15;27.80;;;;;;;22.89;73.09;100928.59;5095692;28;20024;-50
2022/08/17 09:03:46;;;;;;;31.63;28.20;;;;;;;23.00;72.47;100923.97;5096404;28;20030;-46
2022/08/17 09:06:31;;;;;;;31.80;28.45;;;;;;;23.02;71.29;100914.31;5096411;28;20032;-48
2022/08/17 09:09:20;;;;;;;34.58;29.48;;;;;;;23.05;71.11;100897.59;5096222;28;20450;-46
2022/08/17 09:12:14;;;;;;;31.02;26.98;;;;;;;23.24;71.35;100908.63;5095921;28;20471;-46
2022/08/17 09:14:48;;;;;;;31.13;27.92;;;;;;;23.03;70.11;100912.53;5095283;28;20020;-46
2022/08/17 09:17:19;;;;;;;31.17;27.73;;;;;;;23.07;70.76;100922.09;5096197;28;20103;-45
2022/08/17 09:20:02;;;;;;;30.13;26.95;;;;;;;23.27;71.33;100926.94;5096021;28;20027;-45
2022/08/17 09:22:35;;;;;;;31.55;28.17;;;;;;;23.20;70.13;100924.50;5095249;28;20031;-47
2022/08/17 09:25:18;;;;;;;33.10;29.70;;;;;;;23.04;70.88;100932.69;5096133;28;20051;-46
2022/08/17 09:27:57;;;;;;;31.15;27.83;;;;;;;22.90;71.05;100934.72;5095120;28;20055;-45
2022/08/17 09:30:25;;;;;;;34.33;28.90;;;;;;;22.63;71.74;100930.00;5095724;28;20044;-49
2022/08/17 09:32:55;;;;;;;34.42;27.92;;;;;;;22.75;71.77;100939.41;5095912;28;20028;-47
2022/08/17 09:35:43;;;;;;;34.65;29.10;;;;;;;22.82;71.61;100940.13;5095017;28;20039;-45
2022/08/17 09:38:14;;;;;;;32.13;28.83;;;;;;;22.75;71.65;100943.78;5095888;28;20032;-46
2022/08/17 09:40:49;;;;;;;31.42;28.17;;;;;;;22.77;71.52;100948.09;5095405;28;20028;-47
2022/08/17 09:43:57;;;;;;;33.70;29.08;;;;;;;22.74;71.79;100957.81;5095065;28;20032;-45
2022/08/17 09:46:29;;;;;;;32.08;28.77;;;;;;;22.54;71.64;100961.66;5057174;28;20165;-46
2022/08/17 09:49:32;;;;;;;32.70;29.17;;;;;;;22.64;71.94;100983.38;5094440;28;20052;-45
2022/08/17 09:52:04;;;;;;;37.25;31.88;;;;;;;22.25;72.97;100991.91;5095496;28;20032;-47
2022/08/17 09:54:36;;;;;;;33.70;30.15;;;;;;;21.97;73.72;101002.84;5093994;28;20020;-47
2022/08/17 09:57:26;;;;;;;36.05;31.95;;;;;;;21.79;75.32;101016.25;5094495;28;20036;-46
2022/08/17 10:00:14;;;;;;;35.40;31.58;;;;;;;21.53;78.28;101013.03;5095404;28;20043;-47
2022/08/17 10:03:00;;;;;;;37.95;33.88;;;;;;;21.31;80.18;101012.47;5094377;28;20047;-45
2022/08/17 10:05:38;;;;;;;37.88;33.40;;;;;;;21.17;81.51;101019.63;5094923;28;20063;-46
2022/08/17 10:08:24;;;;;;;39.08;34.95;;;;;;;21.08;83.22;101019.75;5095336;28;20056;-50
2022/08/17 10:11:08;;;;;;;37.60;33.58;;;;;;;20.85;84.37;101013.00;5094262;28;20418;-48
2022/08/17 10:13:38;;;;;;;40.35;35.97;;;;;;;20.74;86.93;101015.72;5094753;28;20232;-50
2022/08/17 10:16:12;;;;;;;41.88;36.65;;;;;;;20.64;88.96;101014.03;5094991;28;20115;-48
2022/08/17 10:18:51;;;;;;;42.40;37.28;;;;;;;20.56;89.94;101014.97;5094095;28;20032;-45
2022/08/17 10:27:02;;;;;;;43.95;39.28;;;;;;;20.31;94.29;101019.56;5095157;28;20115;-46
2022/08/17 10:29:38;;;;;;;;;;;;;;;20.47;87.46;101028.16;5094900;28;20031;-49
2022/08/17 10:32:10;;;;;;;42.90;38.22;;;;;;;20.15;93.18;101031.03;5093929;28;19955;-48
2022/08/17 10:34:56;;;;;;;45.30;40.33;;;;;;;20.15;93.60;101031.03;5094293;28;20038;-51
2022/08/17 10:37:52;;;;;;;45.58;40.80;;;;;;;20.04;95.16;101021.50;5094687;28;20036;-47
2022/08/17 10:40:24;;;;;;;51.78;45.45;;;;;;;19.88;99.05;101014.63;5094483;28;20073;-52
2022/08/17 10:42:58;;;;;;;54.72;46.00;;;;;;;19.83;100.00;101006.84;5094335;28;20024;-51
2022/08/17 10:45:30;;;;;;;52.72;46.40;;;;;;;19.73;100.00;100987.66;5093681;28;20085;-52
2022/08/17 10:48:05;;;;;;;51.85;46.45;;;;;;;19.69;100.00;100978.13;5094236;28;20048;-47
2022/08/17 10:50:55;;;;;;;59.28;47.67;;;;;;;19.69;100.00;100972.00;5093980;28;20391;-50
2022/08/17 10:53:32;;;;;;;57.33;50.97;;;;;;;19.68;100.00;100973.75;5093221;28;20119;-47
2022/08/17 10:56:21;;;;;;;54.75;49.03;;;;;;;19.70;100.00;100961.56;5094389;28;20028;-52
2022/08/17 10:58:54;;;;;;;55.95;49.75;;;;;;;19.61;100.00;100951.13;5081311;28;20036;-47
2022/08/17 11:01:42;;;;;;;60.80;51.42;;;;;;;19.65;100.00;100955.50;5093733;28;20031;-51
2022/08/17 11:04:16;;;;;;;58.13;51.28;;;;;;;19.71;100.00;100951.94;5044639;28;20491;-48
2022/08/17 11:07:01;;;;;;;59.05;51.85;;;;;;;19.69;100.00;100959.81;5092949;28;20032;-47
2022/08/17 11:09:33;;;;;;;59.13;52.67;;;;;;;19.73;100.00;100960.66;5093803;28;20031;-47
2022/08/17 11:12:23;;;;;;;58.55;52.03;;;;;;;19.72;100.00;100959.78;5093878;28;20032;-46
2022/08/17 11:15:16;;;;;;;56.65;50.53;;;;;;;19.69;100.00;100959.81;5093255;28;20024;-50
2022/08/17 11:18:10;;;;;;;59.50;52.60;;;;;;;19.63;100.00;100959.84;5093662;28;20425;-51
2022/08/17 11:21:04;;;;;;;60.58;53.05;;;;;;;19.58;100.00;100967.69;5081601;28;20221;-46
2022/08/17 11:23:51;;;;;;;63.17;54.67;;;;;;;19.61;100.00;100971.19;5093603;28;20032;-46
2022/08/17 11:26:27;;;;;;;62.10;54.08;;;;;;;19.56;100.00;100979.03;5093578;28;20482;-50
2022/08/17 11:29:04;;;;;;;61.58;53.47;;;;;;;19.54;100.00;100984.28;5092789;28;20035;-46
2022/08/17 11:31:42;;;;;;;60.25;53.67;;;;;;;19.55;100.00;100993.03;5093547;28;20032;-46
2022/08/17 11:34:25;;;;;;;60.90;54.40;;;;;;;19.56;100.00;100998.22;5092914;28;20127;-46
2022/08/17 11:37:20;;;;;;;61.10;54.42;;;;;;;19.54;100.00;101001.72;5093497;28;20028;-47
2022/08/17 11:40:23;;;;;;;62.00;54.88;;;;;;;19.56;100.00;101005.19;5093501;28;20030;-46
2022/08/17 11:43:08;;;;;;;64.45;56.17;;;;;;;19.53;100.00;101010.44;5092637;28;20204;-46
2022/08/17 11:46:01;;;;;;;62.13;54.67;;;;;;;19.51;100.00;101013.06;5092799;28;20359;-50
2022/08/17 11:51:59;;;;;;;64.45;56.88;;;;;;;19.53;100.00;101029.59;5093105;28;20043;-44
2022/08/17 11:54:27;;;;;;;63.97;56.10;;;;;;;19.54;100.00;101033.09;5093225;28;20103;-48
2022/08/17 11:56:52;;;;;;;67.78;58.35;;;;;;;19.49;100.00;101032.25;5092437;28;20402;-49
2022/08/17 11:59:37;;;;;;;65.13;55.28;;;;;;;19.57;100.00;101033.06;5093006;28;20483;-50
2022/08/17 12:02:33;;;;;;;62.25;55.03;;;;;;;19.64;100.00;101041.75;5093174;28;20051;-50
2022/08/17 12:05:11;;;;;;;71.13;60.30;;;;;;;19.65;100.00;101036.53;5093294;28;20046;-45